sensor_id;sensor_type;location;lat;lon;timestamp;P1;durP1;ratioP1;P2;durP2;ratioP2
84025;SDS011;74110;45.660;25.582;2024-02-15T00:01:31;6.50;;;3.50;;
84025;SDS011;74110;45.660;25.582;2024-02-15T00:06:27;9.60;;;3.20;;
84025;SDS011;74110;45.660;25.582;2024-02-15T00:08:55;7.20;;;2.90;;
84025;SDS011;74110;45.660;25.582;2024-02-15T00:11:24;7.90;;;3.80;;
84025;SDS011;74110;45.660;25.582;2024-02-15T00:13:52;5.60;;;2.60;;
84025;SDS011;74110;45.660;25.582;2024-02-15T00:18:49;7.70;;;3.00;;
84025;SDS011;74110;45.660;25.582;2024-02-15T00:21:18;6.40;;;2.80;;
84025;SDS011;74110;45.660;25.582;2024-02-15T00:23:46;4.40;;;2.10;;
84025;SDS011;74110;45.660;25.582;2024-02-15T00:26:15;7.10;;;3.40;;
84025;SDS011;74110;45.660;25.582;2024-02-15T00:28:44;5.50;;;3.20;;
84025;SDS011;74110;45.660;25.582;2024-02-15T00:31:12;7.60;;;2.40;;
84025;SDS011;74110;45.660;25.582;2024-02-15T00:33:40;8.70;;;3.10;;
84025;SDS011;74110;45.660;25.582;2024-02-15T00:36:09;8.00;;;3.70;;
84025;SDS011;74110;45.660;25.582;2024-02-15T00:38:38;5.40;;;2.90;;
84025;SDS011;74110;45.660;25.582;2024-02-15T00:41:06;5.50;;;2.80;;
84025;SDS011;74110;45.660;25.582;2024-02-15T00:43:36;6.40;;;3.30;;
84025;SDS011;74110;45.660;25.582;2024-02-15T00:46:04;6.60;;;3.30;;
84025;SDS011;74110;45.660;25.582;2024-02-15T00:48:32;5.50;;;2.80;;
84025;SDS011;74110;45.660;25.582;2024-02-15T00:51:01;6.60;;;3.10;;
84025;SDS011;74110;45.660;25.582;2024-02-15T00:53:30;5.90;;;2.60;;
84025;SDS011;74110;45.660;25.582;2024-02-15T00:55:58;6.00;;;2.60;;
84025;SDS011;74110;45.660;25.582;2024-02-15T00:58:26;6.70;;;3.10;;
84025;SDS011;74110;45.660;25.582;2024-02-15T01:00:56;10.70;;;3.50;;
84025;SDS011;74110;45.660;25.582;2024-02-15T01:03:27;4.90;;;2.10;;
84025;SDS011;74110;45.660;25.582;2024-02-15T01:05:54;8.50;;;3.50;;
84025;SDS011;74110;45.660;25.582;2024-02-15T01:08:26;4.80;;;2.30;;
84025;SDS011;74110;45.660;25.582;2024-02-15T01:10:54;5.70;;;3.00;;
84025;SDS011;74110;45.660;25.582;2024-02-15T01:13:22;7.00;;;2.90;;
84025;SDS011;74110;45.660;25.582;2024-02-15T01:15:51;5.00;;;2.80;;
84025;SDS011;74110;45.660;25.582;2024-02-15T01:18:20;5.10;;;3.00;;
84025;SDS011;74110;45.660;25.582;2024-02-15T01:23:17;5.50;;;2.40;;
84025;SDS011;74110;45.660;25.582;2024-02-15T01:25:45;7.50;;;3.20;;
84025;SDS011;74110;45.660;25.582;2024-02-15T01:28:13;7.40;;;3.50;;
84025;SDS011;74110;45.660;25.582;2024-02-15T01:30:43;6.00;;;2.90;;
84025;SDS011;74110;45.660;25.582;2024-02-15T01:33:13;6.20;;;2.80;;
84025;SDS011;74110;45.660;25.582;2024-02-15T01:35:42;7.30;;;3.00;;
84025;SDS011;74110;45.660;25.582;2024-02-15T01:38:11;7.10;;;3.10;;
84025;SDS011;74110;45.660;25.582;2024-02-15T01:43:07;5.90;;;2.50;;
84025;SDS011;74110;45.660;25.582;2024-02-15T01:45:35;4.00;;;2.00;;
84025;SDS011;74110;45.660;25.582;2024-02-15T01:48:02;6.10;;;2.70;;
84025;SDS011;74110;45.660;25.582;2024-02-15T01:50:32;5.70;;;2.70;;
84025;SDS011;74110;45.660;25.582;2024-02-15T01:53:02;4.30;;;1.90;;
84025;SDS011;74110;45.660;25.582;2024-02-15T01:55:33;6.10;;;3.40;;
84025;SDS011;74110;45.660;25.582;2024-02-15T01:58:02;6.70;;;2.50;;
84025;SDS011;74110;45.660;25.582;2024-02-15T02:00:31;7.70;;;2.90;;
84025;SDS011;74110;45.660;25.582;2024-02-15T02:03:00;6.60;;;2.90;;
84025;SDS011;74110;45.660;25.582;2024-02-15T02:05:31;8.40;;;3.40;;
84025;SDS011;74110;45.660;25.582;2024-02-15T02:07:59;4.90;;;2.30;;
84025;SDS011;74110;45.660;25.582;2024-02-15T02:10:31;6.00;;;3.30;;
84025;SDS011;74110;45.660;25.582;2024-02-15T02:13:01;5.80;;;2.70;;
84025;SDS011;74110;45.660;25.582;2024-02-15T02:15:31;5.20;;;2.30;;
84025;SDS011;74110;45.660;25.582;2024-02-15T02:18:02;6.50;;;3.20;;
84025;SDS011;74110;45.660;25.582;2024-02-15T02:20:36;6.00;;;2.20;;
84025;SDS011;74110;45.660;25.582;2024-02-15T02:23:16;6.30;;;3.10;;
84025;SDS011;74110;45.660;25.582;2024-02-15T02:25:48;6.50;;;2.70;;
84025;SDS011;74110;45.660;25.582;2024-02-15T02:28:18;5.90;;;2.10;;
84025;SDS011;74110;45.660;25.582;2024-02-15T02:30:47;5.70;;;2.80;;
84025;SDS011;74110;45.660;25.582;2024-02-15T02:33:15;7.30;;;3.10;;
84025;SDS011;74110;45.660;25.582;2024-02-15T02:35:49;8.00;;;3.60;;
84025;SDS011;74110;45.660;25.582;2024-02-15T02:38:18;5.70;;;3.00;;
84025;SDS011;74110;45.660;25.582;2024-02-15T02:40:47;6.50;;;3.00;;
84025;SDS011;74110;45.660;25.582;2024-02-15T02:43:14;6.90;;;3.00;;
84025;SDS011;74110;45.660;25.582;2024-02-15T02:45:43;8.30;;;3.30;;
84025;SDS011;74110;45.660;25.582;2024-02-15T02:48:12;7.90;;;3.10;;
84025;SDS011;74110;45.660;25.582;2024-02-15T02:50:41;7.00;;;3.00;;
84025;SDS011;74110;45.660;25.582;2024-02-15T02:53:09;7.60;;;3.30;;
84025;SDS011;74110;45.660;25.582;2024-02-15T02:55:38;5.70;;;3.10;;
84025;SDS011;74110;45.660;25.582;2024-02-15T02:58:08;9.10;;;3.80;;
84025;SDS011;74110;45.660;25.582;2024-02-15T03:03:05;3.80;;;1.70;;
84025;SDS011;74110;45.660;25.582;2024-02-15T03:05:33;4.80;;;2.20;;
84025;SDS011;74110;45.660;25.582;2024-02-15T03:08:01;6.40;;;3.20;;
84025;SDS011;74110;45.660;25.582;2024-02-15T03:10:29;5.50;;;2.50;;
84025;SDS011;74110;45.660;25.582;2024-02-15T03:12:57;5.30;;;2.90;;
84025;SDS011;74110;45.660;25.582;2024-02-15T03:15:25;5.60;;;2.90;;
84025;SDS011;74110;45.660;25.582;2024-02-15T03:17:54;3.60;;;2.10;;
84025;SDS011;74110;45.660;25.582;2024-02-15T03:20:23;3.70;;;2.30;;
84025;SDS011;74110;45.660;25.582;2024-02-15T03:22:58;3.10;;;1.60;;
84025;SDS011;74110;45.660;25.582;2024-02-15T03:25:28;6.90;;;2.60;;
84025;SDS011;74110;45.660;25.582;2024-02-15T03:27:57;4.80;;;1.90;;
84025;SDS011;74110;45.660;25.582;2024-02-15T03:30:26;5.90;;;2.90;;
84025;SDS011;74110;45.660;25.582;2024-02-15T03:32:57;6.10;;;2.40;;
84025;SDS011;74110;45.660;25.582;2024-02-15T03:35:27;5.20;;;2.30;;
84025;SDS011;74110;45.660;25.582;2024-02-15T03:37:59;6.60;;;2.40;;
84025;SDS011;74110;45.660;25.582;2024-02-15T03:40:28;3.80;;;2.30;;
84025;SDS011;74110;45.660;25.582;2024-02-15T03:42:56;4.50;;;2.40;;
84025;SDS011;74110;45.660;25.582;2024-02-15T03:45:25;5.40;;;2.30;;
84025;SDS011;74110;45.660;25.582;2024-02-15T03:47:55;5.30;;;2.30;;
84025;SDS011;74110;45.660;25.582;2024-02-15T03:50:24;5.90;;;2.80;;
84025;SDS011;74110;45.660;25.582;2024-02-15T03:55:20;8.50;;;3.60;;
84025;SDS011;74110;45.660;25.582;2024-02-15T03:57:49;6.40;;;2.80;;
84025;SDS011;74110;45.660;25.582;2024-02-15T04:00:16;7.00;;;3.40;;
84025;SDS011;74110;45.660;25.582;2024-02-15T04:02:48;8.70;;;3.60;;
84025;SDS011;74110;45.660;25.582;2024-02-15T04:05:16;7.20;;;3.40;;
84025;SDS011;74110;45.660;25.582;2024-02-15T04:07:47;7.60;;;3.20;;
84025;SDS011;74110;45.660;25.582;2024-02-15T04:12:45;7.60;;;3.30;;
84025;SDS011;74110;45.660;25.582;2024-02-15T04:15:13;5.60;;;3.00;;
84025;SDS011;74110;45.660;25.582;2024-02-15T04:17:45;7.80;;;3.10;;
84025;SDS011;74110;45.660;25.582;2024-02-15T04:20:14;4.70;;;2.40;;
84025;SDS011;74110;45.660;25.582;2024-02-15T04:22:44;6.20;;;3.50;;
84025;SDS011;74110;45.660;25.582;2024-02-15T04:25:16;6.40;;;2.90;;
84025;SDS011;74110;45.660;25.582;2024-02-15T04:27:46;6.80;;;3.10;;
84025;SDS011;74110;45.660;25.582;2024-02-15T04:30:16;8.40;;;2.90;;
84025;SDS011;74110;45.660;25.582;2024-02-15T04:32:46;5.70;;;3.30;;
84025;SDS011;74110;45.660;25.582;2024-02-15T04:35:14;6.20;;;3.00;;
84025;SDS011;74110;45.660;25.582;2024-02-15T04:37:42;8.50;;;3.60;;
84025;SDS011;74110;45.660;25.582;2024-02-15T04:40:10;6.30;;;3.50;;
84025;SDS011;74110;45.660;25.582;2024-02-15T04:42:41;8.10;;;3.30;;
84025;SDS011;74110;45.660;25.582;2024-02-15T04:45:14;8.10;;;4.10;;
84025;SDS011;74110;45.660;25.582;2024-02-15T04:47:44;14.10;;;6.00;;
84025;SDS011;74110;45.660;25.582;2024-02-15T04:50:14;11.80;;;4.20;;
84025;SDS011;74110;45.660;25.582;2024-02-15T04:52:46;8.90;;;3.80;;
84025;SDS011;74110;45.660;25.582;2024-02-15T04:55:16;13.30;;;5.50;;
84025;SDS011;74110;45.660;25.582;2024-02-15T04:57:47;15.30;;;6.40;;
84025;SDS011;74110;45.660;25.582;2024-02-15T05:00:17;13.60;;;5.40;;
84025;SDS011;74110;45.660;25.582;2024-02-15T05:02:48;18.10;;;6.00;;
84025;SDS011;74110;45.660;25.582;2024-02-15T05:05:17;13.90;;;5.60;;
84025;SDS011;74110;45.660;25.582;2024-02-15T05:07:46;18.60;;;7.50;;
84025;SDS011;74110;45.660;25.582;2024-02-15T05:10:16;16.50;;;6.50;;
84025;SDS011;74110;45.660;25.582;2024-02-15T05:12:44;12.90;;;5.40;;
84025;SDS011;74110;45.660;25.582;2024-02-15T05:15:15;6.50;;;3.10;;
84025;SDS011;74110;45.660;25.582;2024-02-15T05:17:45;7.50;;;3.40;;
84025;SDS011;74110;45.660;25.582;2024-02-15T05:20:14;6.90;;;3.50;;
84025;SDS011;74110;45.660;25.582;2024-02-15T05:22:42;8.20;;;3.50;;
84025;SDS011;74110;45.660;25.582;2024-02-15T05:25:20;10.40;;;3.70;;
84025;SDS011;74110;45.660;25.582;2024-02-15T05:27:54;10.90;;;4.10;;
84025;SDS011;74110;45.660;25.582;2024-02-15T05:30:25;10.30;;;4.70;;
84025;SDS011;74110;45.660;25.582;2024-02-15T05:32:53;11.60;;;4.20;;
84025;SDS011;74110;45.660;25.582;2024-02-15T05:35:24;12.20;;;4.90;;
84025;SDS011;74110;45.660;25.582;2024-02-15T05:37:51;7.50;;;4.00;;
84025;SDS011;74110;45.660;25.582;2024-02-15T05:40:20;9.50;;;3.40;;
84025;SDS011;74110;45.660;25.582;2024-02-15T05:42:48;6.80;;;4.00;;
84025;SDS011;74110;45.660;25.582;2024-02-15T05:48:03;7.60;;;3.40;;
84025;SDS011;74110;45.660;25.582;2024-02-15T05:50:34;6.00;;;3.10;;
84025;SDS011;74110;45.660;25.582;2024-02-15T05:53:06;6.40;;;3.60;;
84025;SDS011;74110;45.660;25.582;2024-02-15T05:55:35;5.70;;;3.30;;
84025;SDS011;74110;45.660;25.582;2024-02-15T05:58:07;6.00;;;3.00;;
84025;SDS011;74110;45.660;25.582;2024-02-15T06:00:38;7.90;;;3.50;;
84025;SDS011;74110;45.660;25.582;2024-02-15T06:03:07;11.50;;;4.20;;
84025;SDS011;74110;45.660;25.582;2024-02-15T06:05:37;9.90;;;4.00;;
84025;SDS011;74110;45.660;25.582;2024-02-15T06:08:11;9.50;;;4.00;;
84025;SDS011;74110;45.660;25.582;2024-02-15T06:10:40;10.50;;;3.80;;
84025;SDS011;74110;45.660;25.582;2024-02-15T06:15:38;11.00;;;5.20;;
84025;SDS011;74110;45.660;25.582;2024-02-15T06:18:06;11.70;;;3.90;;
84025;SDS011;74110;45.660;25.582;2024-02-15T06:20:38;14.00;;;5.30;;
84025;SDS011;74110;45.660;25.582;2024-02-15T06:23:06;15.40;;;5.20;;
84025;SDS011;74110;45.660;25.582;2024-02-15T06:25:35;12.50;;;4.70;;
84025;SDS011;74110;45.660;25.582;2024-02-15T06:30:40;11.40;;;4.30;;
84025;SDS011;74110;45.660;25.582;2024-02-15T06:33:27;13.10;;;4.40;;
84025;SDS011;74110;45.660;25.582;2024-02-15T06:38:59;9.40;;;3.60;;
84025;SDS011;74110;45.660;25.582;2024-02-15T06:41:46;6.50;;;3.50;;
84025;SDS011;74110;45.660;25.582;2024-02-15T06:44:16;8.00;;;4.00;;
84025;SDS011;74110;45.660;25.582;2024-02-15T06:46:46;7.40;;;4.20;;
84025;SDS011;74110;45.660;25.582;2024-02-15T06:49:15;6.20;;;3.90;;
84025;SDS011;74110;45.660;25.582;2024-02-15T06:51:47;7.30;;;3.50;;
84025;SDS011;74110;45.660;25.582;2024-02-15T06:54:18;8.30;;;3.90;;
84025;SDS011;74110;45.660;25.582;2024-02-15T06:59:15;6.00;;;3.20;;
84025;SDS011;74110;45.660;25.582;2024-02-15T07:04:11;6.30;;;3.60;;
84025;SDS011;74110;45.660;25.582;2024-02-15T07:06:39;7.80;;;3.10;;
84025;SDS011;74110;45.660;25.582;2024-02-15T07:09:09;9.30;;;3.90;;
84025;SDS011;74110;45.660;25.582;2024-02-15T07:11:39;7.10;;;3.10;;
84025;SDS011;74110;45.660;25.582;2024-02-15T07:14:09;8.50;;;3.60;;
84025;SDS011;74110;45.660;25.582;2024-02-15T07:16:49;7.60;;;3.80;;
84025;SDS011;74110;45.660;25.582;2024-02-15T07:19:18;7.50;;;3.80;;
84025;SDS011;74110;45.660;25.582;2024-02-15T07:21:48;7.20;;;3.50;;
84025;SDS011;74110;45.660;25.582;2024-02-15T07:24:15;8.90;;;3.30;;
84025;SDS011;74110;45.660;25.582;2024-02-15T07:26:45;7.50;;;4.00;;
84025;SDS011;74110;45.660;25.582;2024-02-15T07:29:14;8.20;;;3.40;;
84025;SDS011;74110;45.660;25.582;2024-02-15T07:31:43;7.00;;;3.70;;
84025;SDS011;74110;45.660;25.582;2024-02-15T07:34:10;6.70;;;3.50;;
84025;SDS011;74110;45.660;25.582;2024-02-15T07:36:41;6.80;;;3.40;;
84025;SDS011;74110;45.660;25.582;2024-02-15T07:39:10;6.70;;;4.00;;
84025;SDS011;74110;45.660;25.582;2024-02-15T07:41:48;8.70;;;4.10;;
84025;SDS011;74110;45.660;25.582;2024-02-15T07:44:23;7.20;;;3.90;;
84025;SDS011;74110;45.660;25.582;2024-02-15T07:49:23;9.50;;;4.10;;
84025;SDS011;74110;45.660;25.582;2024-02-15T07:51:54;8.70;;;4.70;;
84025;SDS011;74110;45.660;25.582;2024-02-15T07:54:22;6.50;;;3.40;;
84025;SDS011;74110;45.660;25.582;2024-02-15T07:56:51;5.00;;;3.00;;
84025;SDS011;74110;45.660;25.582;2024-02-15T07:59:19;7.90;;;4.30;;
84025;SDS011;74110;45.660;25.582;2024-02-15T08:01:48;8.50;;;3.90;;
84025;SDS011;74110;45.660;25.582;2024-02-15T08:04:18;8.70;;;4.50;;
84025;SDS011;74110;45.660;25.582;2024-02-15T08:06:49;8.00;;;3.60;;
84025;SDS011;74110;45.660;25.582;2024-02-15T08:09:22;7.40;;;4.10;;
84025;SDS011;74110;45.660;25.582;2024-02-15T08:11:51;10.60;;;4.40;;
84025;SDS011;74110;45.660;25.582;2024-02-15T08:14:21;9.90;;;4.00;;
84025;SDS011;74110;45.660;25.582;2024-02-15T08:16:49;7.80;;;4.30;;
84025;SDS011;74110;45.660;25.582;2024-02-15T08:19:17;10.70;;;4.50;;
84025;SDS011;74110;45.660;25.582;2024-02-15T08:24:18;7.40;;;3.90;;
84025;SDS011;74110;45.660;25.582;2024-02-15T08:26:45;5.30;;;2.80;;
84025;SDS011;74110;45.660;25.582;2024-02-15T08:29:14;7.40;;;4.10;;
84025;SDS011;74110;45.660;25.582;2024-02-15T08:31:43;8.90;;;3.70;;
84025;SDS011;74110;45.660;25.582;2024-02-15T08:34:10;7.70;;;4.00;;
84025;SDS011;74110;45.660;25.582;2024-02-15T08:36:41;7.20;;;4.00;;
84025;SDS011;74110;45.660;25.582;2024-02-15T08:41:39;5.80;;;2.80;;
84025;SDS011;74110;45.660;25.582;2024-02-15T08:44:08;6.80;;;3.70;;
84025;SDS011;74110;45.660;25.582;2024-02-15T08:46:40;7.20;;;3.40;;
84025;SDS011;74110;45.660;25.582;2024-02-15T08:49:08;8.90;;;3.30;;
84025;SDS011;74110;45.660;25.582;2024-02-15T08:51:36;8.60;;;3.40;;
84025;SDS011;74110;45.660;25.582;2024-02-15T08:54:05;7.80;;;3.70;;
84025;SDS011;74110;45.660;25.582;2024-02-15T08:56:35;7.70;;;3.90;;
84025;SDS011;74110;45.660;25.582;2024-02-15T08:59:06;6.40;;;2.80;;
84025;SDS011;74110;45.660;25.582;2024-02-15T09:01:34;5.40;;;2.90;;
84025;SDS011;74110;45.660;25.582;2024-02-15T09:04:03;7.00;;;2.90;;
84025;SDS011;74110;45.660;25.582;2024-02-15T09:06:31;6.20;;;2.90;;
84025;SDS011;74110;45.660;25.582;2024-02-15T09:09:01;7.00;;;3.50;;
84025;SDS011;74110;45.660;25.582;2024-02-15T09:11:29;5.70;;;2.70;;
84025;SDS011;74110;45.660;25.582;2024-02-15T09:13:57;6.80;;;3.20;;
84025;SDS011;74110;45.660;25.582;2024-02-15T09:16:25;4.60;;;2.30;;
84025;SDS011;74110;45.660;25.582;2024-02-15T09:18:56;7.00;;;3.60;;
84025;SDS011;74110;45.660;25.582;2024-02-15T09:21:29;4.60;;;2.90;;
84025;SDS011;74110;45.660;25.582;2024-02-15T09:23:58;5.30;;;3.10;;
84025;SDS011;74110;45.660;25.582;2024-02-15T09:26:29;4.00;;;2.30;;
84025;SDS011;74110;45.660;25.582;2024-02-15T09:28:57;6.60;;;3.00;;
84025;SDS011;74110;45.660;25.582;2024-02-15T09:31:26;6.00;;;3.40;;
84025;SDS011;74110;45.660;25.582;2024-02-15T09:37:09;6.50;;;3.60;;
84025;SDS011;74110;45.660;25.582;2024-02-15T09:39:56;5.20;;;2.70;;
84025;SDS011;74110;45.660;25.582;2024-02-15T09:42:26;6.50;;;3.50;;
84025;SDS011;74110;45.660;25.582;2024-02-15T09:44:55;6.00;;;3.10;;
84025;SDS011;74110;45.660;25.582;2024-02-15T09:47:45;5.10;;;2.60;;
84025;SDS011;74110;45.660;25.582;2024-02-15T09:50:23;7.00;;;3.40;;
84025;SDS011;74110;45.660;25.582;2024-02-15T09:52:59;6.90;;;3.70;;
84025;SDS011;74110;45.660;25.582;2024-02-15T09:55:34;7.10;;;3.50;;
84025;SDS011;74110;45.660;25.582;2024-02-15T09:58:03;5.30;;;2.90;;
84025;SDS011;74110;45.660;25.582;2024-02-15T10:03:21;5.90;;;3.40;;
84025;SDS011;74110;45.660;25.582;2024-02-15T10:06:10;5.50;;;2.80;;
84025;SDS011;74110;45.660;25.582;2024-02-15T10:08:40;4.80;;;2.50;;
84025;SDS011;74110;45.660;25.582;2024-02-15T10:11:54;4.20;;;3.30;;
84025;SDS011;74110;45.660;25.582;2024-02-15T10:14:28;4.30;;;2.10;;
84025;SDS011;74110;45.660;25.582;2024-02-15T10:16:56;4.70;;;2.40;;
84025;SDS011;74110;45.660;25.582;2024-02-15T10:23:11;5.00;;;2.30;;
84025;SDS011;74110;45.660;25.582;2024-02-15T10:25:47;4.90;;;2.40;;
84025;SDS011;74110;45.660;25.582;2024-02-15T10:28:22;3.00;;;1.70;;
84025;SDS011;74110;45.660;25.582;2024-02-15T10:30:53;3.70;;;1.90;;
84025;SDS011;74110;45.660;25.582;2024-02-15T10:33:30;4.60;;;2.50;;
84025;SDS011;74110;45.660;25.582;2024-02-15T10:36:05;3.50;;;1.70;;
84025;SDS011;74110;45.660;25.582;2024-02-15T10:38:37;3.90;;;1.60;;
84025;SDS011;74110;45.660;25.582;2024-02-15T10:41:10;3.80;;;2.10;;
84025;SDS011;74110;45.660;25.582;2024-02-15T10:43:39;4.20;;;2.30;;
84025;SDS011;74110;45.660;25.582;2024-02-15T10:46:14;4.70;;;2.30;;
84025;SDS011;74110;45.660;25.582;2024-02-15T10:48:46;4.40;;;2.60;;
84025;SDS011;74110;45.660;25.582;2024-02-15T10:51:14;5.00;;;2.30;;
84025;SDS011;74110;45.660;25.582;2024-02-15T10:53:47;5.80;;;3.10;;
84025;SDS011;74110;45.660;25.582;2024-02-15T10:56:26;5.60;;;3.00;;
84025;SDS011;74110;45.660;25.582;2024-02-15T10:59:00;4.70;;;2.40;;
84025;SDS011;74110;45.660;25.582;2024-02-15T11:01:33;4.90;;;2.80;;
84025;SDS011;74110;45.660;25.582;2024-02-15T11:04:07;5.20;;;2.60;;
84025;SDS011;74110;45.660;25.582;2024-02-15T11:06:41;4.70;;;2.20;;
84025;SDS011;74110;45.660;25.582;2024-02-15T11:09:10;5.60;;;2.30;;
84025;SDS011;74110;45.660;25.582;2024-02-15T11:11:43;4.40;;;2.20;;
84025;SDS011;74110;45.660;25.582;2024-02-15T11:14:23;8.70;;;2.80;;
84025;SDS011;74110;45.660;25.582;2024-02-15T11:16:56;4.20;;;2.00;;
84025;SDS011;74110;45.660;25.582;2024-02-15T11:22:24;4.10;;;2.20;;
84025;SDS011;74110;45.660;25.582;2024-02-15T11:24:52;2.70;;;1.60;;
84025;SDS011;74110;45.660;25.582;2024-02-15T11:27:26;4.80;;;2.10;;
84025;SDS011;74110;45.660;25.582;2024-02-15T11:29:56;3.60;;;1.80;;
84025;SDS011;74110;45.660;25.582;2024-02-15T11:32:43;3.30;;;1.70;;
84025;SDS011;74110;45.660;25.582;2024-02-15T11:37:58;4.50;;;2.20;;
84025;SDS011;74110;45.660;25.582;2024-02-15T11:41:09;3.00;;;1.60;;
84025;SDS011;74110;45.660;25.582;2024-02-15T11:43:46;4.50;;;2.10;;
84025;SDS011;74110;45.660;25.582;2024-02-15T11:46:26;3.40;;;1.70;;
84025;SDS011;74110;45.660;25.582;2024-02-15T11:49:00;3.30;;;1.70;;
84025;SDS011;74110;45.660;25.582;2024-02-15T11:51:33;4.30;;;2.20;;
84025;SDS011;74110;45.660;25.582;2024-02-15T11:54:16;4.50;;;1.90;;
84025;SDS011;74110;45.660;25.582;2024-02-15T11:59:40;2.90;;;1.50;;
84025;SDS011;74110;45.660;25.582;2024-02-15T12:02:45;5.10;;;2.10;;
84025;SDS011;74110;45.660;25.582;2024-02-15T12:05:34;4.10;;;2.60;;
84025;SDS011;74110;45.660;25.582;2024-02-15T12:08:20;3.40;;;2.00;;
84025;SDS011;74110;45.660;25.582;2024-02-15T12:11:07;3.80;;;2.40;;
84025;SDS011;74110;45.660;25.582;2024-02-15T12:13:54;6.00;;;2.10;;
84025;SDS011;74110;45.660;25.582;2024-02-15T12:16:41;3.80;;;1.90;;
84025;SDS011;74110;45.660;25.582;2024-02-15T12:19:28;4.10;;;2.10;;
84025;SDS011;74110;45.660;25.582;2024-02-15T12:24:26;5.20;;;1.70;;
84025;SDS011;74110;45.660;25.582;2024-02-15T12:27:01;2.90;;;1.80;;
84025;SDS011;74110;45.660;25.582;2024-02-15T12:29:34;2.80;;;1.40;;
84025;SDS011;74110;45.660;25.582;2024-02-15T12:32:04;5.90;;;2.30;;
84025;SDS011;74110;45.660;25.582;2024-02-15T12:34:33;6.70;;;2.50;;
84025;SDS011;74110;45.660;25.582;2024-02-15T12:37:05;4.50;;;1.70;;
84025;SDS011;74110;45.660;25.582;2024-02-15T12:39:37;4.60;;;2.00;;
84025;SDS011;74110;45.660;25.582;2024-02-15T12:42:06;4.80;;;1.80;;
84025;SDS011;74110;45.660;25.582;2024-02-15T12:44:35;2.80;;;1.60;;
84025;SDS011;74110;45.660;25.582;2024-02-15T12:47:04;2.20;;;1.30;;
84025;SDS011;74110;45.660;25.582;2024-02-15T12:49:33;4.50;;;1.90;;
84025;SDS011;74110;45.660;25.582;2024-02-15T12:55:14;3.70;;;1.60;;
84025;SDS011;74110;45.660;25.582;2024-02-15T12:57:49;2.30;;;1.20;;
84025;SDS011;74110;45.660;25.582;2024-02-15T13:00:23;3.70;;;1.70;;
84025;SDS011;74110;45.660;25.582;2024-02-15T13:02:57;3.50;;;1.70;;
84025;SDS011;74110;45.660;25.582;2024-02-15T13:05:27;3.30;;;2.00;;
84025;SDS011;74110;45.660;25.582;2024-02-15T13:07:55;6.50;;;2.30;;
84025;SDS011;74110;45.660;25.582;2024-02-15T13:10:34;4.10;;;2.00;;
84025;SDS011;74110;45.660;25.582;2024-02-15T13:13:02;4.60;;;2.10;;
84025;SDS011;74110;45.660;25.582;2024-02-15T13:15:30;4.20;;;1.50;;
84025;SDS011;74110;45.660;25.582;2024-02-15T13:18:01;3.90;;;2.00;;
84025;SDS011;74110;45.660;25.582;2024-02-15T13:20:34;14.90;;;1.90;;
84025;SDS011;74110;45.660;25.582;2024-02-15T13:23:14;2.80;;;1.70;;
84025;SDS011;74110;45.660;25.582;2024-02-15T13:25:46;3.90;;;1.50;;
84025;SDS011;74110;45.660;25.582;2024-02-15T13:28:15;5.10;;;2.50;;
84025;SDS011;74110;45.660;25.582;2024-02-15T13:30:43;2.50;;;1.30;;
84025;SDS011;74110;45.660;25.582;2024-02-15T13:33:12;3.10;;;1.90;;
84025;SDS011;74110;45.660;25.582;2024-02-15T13:35:42;4.40;;;1.80;;
84025;SDS011;74110;45.660;25.582;2024-02-15T13:38:11;3.40;;;1.70;;
84025;SDS011;74110;45.660;25.582;2024-02-15T13:40:48;3.70;;;2.00;;
84025;SDS011;74110;45.660;25.582;2024-02-15T13:43:25;5.30;;;2.30;;
84025;SDS011;74110;45.660;25.582;2024-02-15T13:45:56;13.90;;;5.60;;
84025;SDS011;74110;45.660;25.582;2024-02-15T13:48:23;5.50;;;1.90;;
84025;SDS011;74110;45.660;25.582;2024-02-15T13:50:53;5.60;;;2.30;;
84025;SDS011;74110;45.660;25.582;2024-02-15T13:53:21;4.80;;;2.00;;
84025;SDS011;74110;45.660;25.582;2024-02-15T13:55:53;6.30;;;1.70;;
84025;SDS011;74110;45.660;25.582;2024-02-15T13:58:22;4.80;;;2.60;;
84025;SDS011;74110;45.660;25.582;2024-02-15T14:00:50;8.00;;;3.00;;
84025;SDS011;74110;45.660;25.582;2024-02-15T14:03:20;3.20;;;1.60;;
84025;SDS011;74110;45.660;25.582;2024-02-15T14:05:51;6.80;;;2.00;;
84025;SDS011;74110;45.660;25.582;2024-02-15T14:08:20;8.80;;;2.60;;
84025;SDS011;74110;45.660;25.582;2024-02-15T14:10:49;3.30;;;1.70;;
84025;SDS011;74110;45.660;25.582;2024-02-15T14:13:17;4.60;;;1.50;;
84025;SDS011;74110;45.660;25.582;2024-02-15T14:15:49;4.30;;;2.20;;
84025;SDS011;74110;45.660;25.582;2024-02-15T14:18:18;3.70;;;1.90;;
84025;SDS011;74110;45.660;25.582;2024-02-15T14:20:47;4.20;;;1.70;;
84025;SDS011;74110;45.660;25.582;2024-02-15T14:23:16;3.30;;;2.30;;
84025;SDS011;74110;45.660;25.582;2024-02-15T14:25:46;5.00;;;2.30;;
84025;SDS011;74110;45.660;25.582;2024-02-15T14:28:15;3.70;;;1.80;;
84025;SDS011;74110;45.660;25.582;2024-02-15T14:30:44;8.20;;;2.40;;
84025;SDS011;74110;45.660;25.582;2024-02-15T14:33:31;5.50;;;2.60;;
84025;SDS011;74110;45.660;25.582;2024-02-15T14:36:03;5.20;;;2.90;;
84025;SDS011;74110;45.660;25.582;2024-02-15T14:38:33;4.70;;;2.40;;
84025;SDS011;74110;45.660;25.582;2024-02-15T14:41:03;5.30;;;2.50;;
84025;SDS011;74110;45.660;25.582;2024-02-15T14:43:33;5.30;;;2.70;;
84025;SDS011;74110;45.660;25.582;2024-02-15T14:46:01;4.70;;;2.50;;
84025;SDS011;74110;45.660;25.582;2024-02-15T14:48:32;6.90;;;3.10;;
84025;SDS011;74110;45.660;25.582;2024-02-15T14:51:02;8.10;;;3.10;;
84025;SDS011;74110;45.660;25.582;2024-02-15T14:53:30;7.30;;;2.90;;
84025;SDS011;74110;45.660;25.582;2024-02-15T14:55:59;5.70;;;2.40;;
84025;SDS011;74110;45.660;25.582;2024-02-15T14:58:29;6.20;;;2.00;;
84025;SDS011;74110;45.660;25.582;2024-02-15T15:00:58;5.20;;;1.90;;
84025;SDS011;74110;45.660;25.582;2024-02-15T15:03:31;3.80;;;1.70;;
84025;SDS011;74110;45.660;25.582;2024-02-15T15:06:11;4.90;;;2.60;;
84025;SDS011;74110;45.660;25.582;2024-02-15T15:08:57;6.70;;;2.90;;
84025;SDS011;74110;45.660;25.582;2024-02-15T15:11:44;5.40;;;2.50;;
84025;SDS011;74110;45.660;25.582;2024-02-15T15:14:31;5.80;;;2.10;;
84025;SDS011;74110;45.660;25.582;2024-02-15T15:17:00;5.40;;;1.90;;
84025;SDS011;74110;45.660;25.582;2024-02-15T15:19:31;6.90;;;2.70;;
84025;SDS011;74110;45.660;25.582;2024-02-15T15:22:00;4.60;;;2.10;;
84025;SDS011;74110;45.660;25.582;2024-02-15T15:24:32;5.40;;;2.50;;
84025;SDS011;74110;45.660;25.582;2024-02-15T15:27:01;4.40;;;2.40;;
84025;SDS011;74110;45.660;25.582;2024-02-15T15:29:33;6.20;;;2.90;;
84025;SDS011;74110;45.660;25.582;2024-02-15T15:32:02;5.30;;;3.00;;
84025;SDS011;74110;45.660;25.582;2024-02-15T15:37:00;7.60;;;3.80;;
84025;SDS011;74110;45.660;25.582;2024-02-15T15:39:29;8.80;;;3.80;;
84025;SDS011;74110;45.660;25.582;2024-02-15T15:42:00;10.40;;;5.00;;
84025;SDS011;74110;45.660;25.582;2024-02-15T15:44:30;10.20;;;4.30;;
84025;SDS011;74110;45.660;25.582;2024-02-15T15:46:59;13.40;;;4.80;;
84025;SDS011;74110;45.660;25.582;2024-02-15T15:49:27;9.90;;;4.20;;
84025;SDS011;74110;45.660;25.582;2024-02-15T15:51:57;6.80;;;3.40;;
84025;SDS011;74110;45.660;25.582;2024-02-15T15:54:26;9.00;;;4.00;;
84025;SDS011;74110;45.660;25.582;2024-02-15T15:56:54;7.60;;;5.50;;
84025;SDS011;74110;45.660;25.582;2024-02-15T15:59:23;7.10;;;4.50;;
84025;SDS011;74110;45.660;25.582;2024-02-15T16:01:51;8.00;;;3.60;;
84025;SDS011;74110;45.660;25.582;2024-02-15T16:04:19;18.90;;;7.40;;